KSAD/SAD METAR and TAF weather

Enter ICAO airport designator
Station Type Date Time Source
KSAD METAR 2021/04/17 01:51 UTC NOAA

KSAD 170151Z AUTO 30012KT 10SM CLR 22/M11 A2984 RMK AO2 SLP070 T02171111


Station Type Date Time Source
KSAD Decoded METAR 2021/04/17 01:51 UTC NOAA

SAFFORD MUNICIPAL AIRPORT, AZ, United States (KSAD) 32-51N 109-38W 962M
Apr 16, 2021 - 09:51 PM EDT / 2021.04.17 0151 UTC
Wind: from the WNW (300 degrees) at 14 MPH (12 KT):0
Visibility: 10 mile(s):0
Sky conditions: clear
Temperature: 71.1 F (21.7 C)
Dew Point: 12.0 F (-11.1 C)
Relative Humidity: 10%
Pressure (altimeter): 29.84 in. Hg (1010 hPa)
ob: KSAD 170151Z AUTO 30012KT 10SM CLR 22/M11 A2984 RMK AO2 SLP070 T02171111
cycle: 2

Station Type Date Time Source
KSAD TAF UTC NOAA

Error!

Example: see airport list